sensor_id;sensor_type;location;lat;lon;timestamp;P1;durP1;ratioP1;P2;durP2;ratioP2
18720;SDS011;9489;50.948;3.114;2024-02-26T00:01:40;3.85;;;2.42;;
18720;SDS011;9489;50.948;3.114;2024-02-26T00:04:05;3.75;;;2.08;;
18720;SDS011;9489;50.948;3.114;2024-02-26T00:06:31;4.47;;;2.67;;
18720;SDS011;9489;50.948;3.114;2024-02-26T00:08:57;2.63;;;1.95;;
18720;SDS011;9489;50.948;3.114;2024-02-26T00:11:23;2.17;;;1.98;;
18720;SDS011;9489;50.948;3.114;2024-02-26T00:13:48;2.30;;;2.10;;
18720;SDS011;9489;50.948;3.114;2024-02-26T00:16:14;3.47;;;2.03;;
18720;SDS011;9489;50.948;3.114;2024-02-26T00:18:40;3.65;;;2.20;;
18720;SDS011;9489;50.948;3.114;2024-02-26T00:21:05;3.47;;;1.98;;
18720;SDS011;9489;50.948;3.114;2024-02-26T00:23:31;2.42;;;2.22;;
18720;SDS011;9489;50.948;3.114;2024-02-26T00:25:57;2.78;;;1.95;;
18720;SDS011;9489;50.948;3.114;2024-02-26T00:28:23;3.63;;;2.30;;
18720;SDS011;9489;50.948;3.114;2024-02-26T00:30:49;2.72;;;1.67;;
18720;SDS011;9489;50.948;3.114;2024-02-26T00:33:16;2.55;;;2.35;;
18720;SDS011;9489;50.948;3.114;2024-02-26T00:35:42;3.08;;;1.80;;
18720;SDS011;9489;50.948;3.114;2024-02-26T00:38:08;2.25;;;1.90;;
18720;SDS011;9489;50.948;3.114;2024-02-26T00:40:33;2.70;;;2.10;;
18720;SDS011;9489;50.948;3.114;2024-02-26T00:42:59;4.10;;;1.95;;
18720;SDS011;9489;50.948;3.114;2024-02-26T00:45:25;2.88;;;2.28;;
18720;SDS011;9489;50.948;3.114;2024-02-26T00:47:50;4.07;;;2.42;;
18720;SDS011;9489;50.948;3.114;2024-02-26T00:50:16;1.80;;;1.70;;
18720;SDS011;9489;50.948;3.114;2024-02-26T00:52:42;3.63;;;2.30;;
18720;SDS011;9489;50.948;3.114;2024-02-26T00:55:07;2.00;;;1.90;;
18720;SDS011;9489;50.948;3.114;2024-02-26T00:57:33;3.13;;;2.20;;
18720;SDS011;9489;50.948;3.114;2024-02-26T00:59:59;5.28;;;2.90;;
18720;SDS011;9489;50.948;3.114;2024-02-26T01:02:25;2.50;;;2.30;;
18720;SDS011;9489;50.948;3.114;2024-02-26T01:04:51;2.58;;;2.17;;
18720;SDS011;9489;50.948;3.114;2024-02-26T01:07:17;3.35;;;2.30;;
18720;SDS011;9489;50.948;3.114;2024-02-26T01:09:43;4.80;;;2.72;;
18720;SDS011;9489;50.948;3.114;2024-02-26T01:12:09;4.57;;;2.42;;
18720;SDS011;9489;50.948;3.114;2024-02-26T01:14:35;4.40;;;2.95;;
18720;SDS011;9489;50.948;3.114;2024-02-26T01:17:00;3.13;;;2.75;;
18720;SDS011;9489;50.948;3.114;2024-02-26T01:19:26;2.92;;;2.65;;
18720;SDS011;9489;50.948;3.114;2024-02-26T01:21:52;2.95;;;2.75;;
18720;SDS011;9489;50.948;3.114;2024-02-26T01:24:18;3.00;;;2.72;;
18720;SDS011;9489;50.948;3.114;2024-02-26T01:26:44;4.32;;;2.58;;
18720;SDS011;9489;50.948;3.114;2024-02-26T01:29:09;3.28;;;2.55;;
18720;SDS011;9489;50.948;3.114;2024-02-26T01:31:35;2.95;;;2.60;;
18720;SDS011;9489;50.948;3.114;2024-02-26T01:34:01;5.05;;;3.17;;
18720;SDS011;9489;50.948;3.114;2024-02-26T01:36:27;2.85;;;2.47;;
18720;SDS011;9489;50.948;3.114;2024-02-26T01:38:52;3.05;;;2.85;;
18720;SDS011;9489;50.948;3.114;2024-02-26T01:41:18;3.00;;;2.80;;
18720;SDS011;9489;50.948;3.114;2024-02-26T01:43:43;3.42;;;2.67;;
18720;SDS011;9489;50.948;3.114;2024-02-26T01:46:11;3.78;;;3.08;;
18720;SDS011;9489;50.948;3.114;2024-02-26T01:48:42;5.30;;;2.90;;
18720;SDS011;9489;50.948;3.114;2024-02-26T01:51:09;3.95;;;3.55;;
18720;SDS011;9489;50.948;3.114;2024-02-26T01:53:37;2.95;;;2.72;;
18720;SDS011;9489;50.948;3.114;2024-02-26T01:56:03;4.50;;;3.10;;
18720;SDS011;9489;50.948;3.114;2024-02-26T01:58:29;2.92;;;2.67;;
18720;SDS011;9489;50.948;3.114;2024-02-26T02:00:56;3.30;;;2.70;;
18720;SDS011;9489;50.948;3.114;2024-02-26T02:03:22;3.67;;;3.38;;
18720;SDS011;9489;50.948;3.114;2024-02-26T02:05:48;3.83;;;2.72;;
18720;SDS011;9489;50.948;3.114;2024-02-26T02:08:14;3.88;;;3.13;;
18720;SDS011;9489;50.948;3.114;2024-02-26T02:10:40;3.60;;;2.67;;
18720;SDS011;9489;50.948;3.114;2024-02-26T02:13:07;2.83;;;2.50;;
18720;SDS011;9489;50.948;3.114;2024-02-26T02:15:33;4.80;;;2.50;;
18720;SDS011;9489;50.948;3.114;2024-02-26T02:17:58;2.80;;;2.60;;
18720;SDS011;9489;50.948;3.114;2024-02-26T02:20:25;3.75;;;2.55;;
18720;SDS011;9489;50.948;3.114;2024-02-26T02:22:57;3.03;;;2.72;;
18720;SDS011;9489;50.948;3.114;2024-02-26T02:25:23;3.25;;;2.95;;
18720;SDS011;9489;50.948;3.114;2024-02-26T02:27:49;3.95;;;2.70;;
18720;SDS011;9489;50.948;3.114;2024-02-26T02:30:15;4.13;;;2.42;;
18720;SDS011;9489;50.948;3.114;2024-02-26T02:32:41;2.80;;;2.60;;
18720;SDS011;9489;50.948;3.114;2024-02-26T02:35:07;3.45;;;3.15;;
18720;SDS011;9489;50.948;3.114;2024-02-26T02:37:33;4.50;;;3.03;;
18720;SDS011;9489;50.948;3.114;2024-02-26T02:39:59;2.90;;;2.60;;
18720;SDS011;9489;50.948;3.114;2024-02-26T02:42:25;5.47;;;3.25;;
18720;SDS011;9489;50.948;3.114;2024-02-26T02:44:51;3.55;;;3.25;;
18720;SDS011;9489;50.948;3.114;2024-02-26T02:47:17;3.78;;;3.40;;
18720;SDS011;9489;50.948;3.114;2024-02-26T02:49:42;3.70;;;3.40;;
18720;SDS011;9489;50.948;3.114;2024-02-26T02:52:08;3.83;;;3.53;;
18720;SDS011;9489;50.948;3.114;2024-02-26T02:54:33;4.65;;;3.75;;
18720;SDS011;9489;50.948;3.114;2024-02-26T02:57:00;5.30;;;3.47;;
18720;SDS011;9489;50.948;3.114;2024-02-26T02:59:26;4.18;;;3.78;;
18720;SDS011;9489;50.948;3.114;2024-02-26T03:01:52;5.20;;;3.92;;
18720;SDS011;9489;50.948;3.114;2024-02-26T03:04:18;3.40;;;3.10;;
18720;SDS011;9489;50.948;3.114;2024-02-26T03:06:43;3.28;;;3.00;;
18720;SDS011;9489;50.948;3.114;2024-02-26T03:09:09;4.05;;;3.75;;
18720;SDS011;9489;50.948;3.114;2024-02-26T03:11:35;3.50;;;3.20;;
18720;SDS011;9489;50.948;3.114;2024-02-26T03:14:00;3.63;;;3.33;;
18720;SDS011;9489;50.948;3.114;2024-02-26T03:16:26;4.03;;;3.40;;
18720;SDS011;9489;50.948;3.114;2024-02-26T03:18:51;3.25;;;2.95;;
18720;SDS011;9489;50.948;3.114;2024-02-26T03:21:17;4.05;;;3.65;;
18720;SDS011;9489;50.948;3.114;2024-02-26T03:23:43;3.70;;;3.40;;
18720;SDS011;9489;50.948;3.114;2024-02-26T03:26:09;3.42;;;3.13;;
18720;SDS011;9489;50.948;3.114;2024-02-26T03:28:38;3.50;;;3.20;;
18720;SDS011;9489;50.948;3.114;2024-02-26T03:31:04;3.28;;;3.00;;
18720;SDS011;9489;50.948;3.114;2024-02-26T03:33:29;3.60;;;3.30;;
18720;SDS011;9489;50.948;3.114;2024-02-26T03:35:55;3.55;;;3.25;;
18720;SDS011;9489;50.948;3.114;2024-02-26T03:38:21;3.20;;;3.00;;
18720;SDS011;9489;50.948;3.114;2024-02-26T03:40:47;3.42;;;3.17;;
18720;SDS011;9489;50.948;3.114;2024-02-26T03:43:12;3.35;;;3.05;;
18720;SDS011;9489;50.948;3.114;2024-02-26T03:45:38;3.90;;;3.58;;
18720;SDS011;9489;50.948;3.114;2024-02-26T03:48:04;3.88;;;3.58;;
18720;SDS011;9489;50.948;3.114;2024-02-26T03:50:30;5.15;;;4.60;;
18720;SDS011;9489;50.948;3.114;2024-02-26T03:52:56;7.00;;;6.40;;
18720;SDS011;9489;50.948;3.114;2024-02-26T03:55:22;7.85;;;7.18;;
18720;SDS011;9489;50.948;3.114;2024-02-26T03:57:50;8.95;;;8.05;;
18720;SDS011;9489;50.948;3.114;2024-02-26T04:00:19;9.57;;;8.68;;
18720;SDS011;9489;50.948;3.114;2024-02-26T04:02:46;10.98;;;9.88;;
18720;SDS011;9489;50.948;3.114;2024-02-26T04:05:12;9.90;;;9.05;;
18720;SDS011;9489;50.948;3.114;2024-02-26T04:07:38;11.23;;;10.15;;
18720;SDS011;9489;50.948;3.114;2024-02-26T04:10:08;11.48;;;10.32;;
18720;SDS011;9489;50.948;3.114;2024-02-26T04:12:38;11.23;;;10.00;;
18720;SDS011;9489;50.948;3.114;2024-02-26T04:15:06;10.32;;;9.52;;
18720;SDS011;9489;50.948;3.114;2024-02-26T04:17:35;11.00;;;10.10;;
18720;SDS011;9489;50.948;3.114;2024-02-26T04:20:02;11.18;;;10.15;;
18720;SDS011;9489;50.948;3.114;2024-02-26T04:22:30;11.52;;;10.43;;
18720;SDS011;9489;50.948;3.114;2024-02-26T04:24:56;10.57;;;9.73;;
18720;SDS011;9489;50.948;3.114;2024-02-26T04:27:22;12.02;;;11.13;;
18720;SDS011;9489;50.948;3.114;2024-02-26T04:29:47;11.98;;;10.88;;
18720;SDS011;9489;50.948;3.114;2024-02-26T04:32:13;12.18;;;11.07;;
18720;SDS011;9489;50.948;3.114;2024-02-26T04:34:38;12.35;;;11.35;;
18720;SDS011;9489;50.948;3.114;2024-02-26T04:37:04;12.57;;;11.32;;
18720;SDS011;9489;50.948;3.114;2024-02-26T04:39:30;12.02;;;11.10;;
18720;SDS011;9489;50.948;3.114;2024-02-26T04:41:55;11.88;;;10.88;;
18720;SDS011;9489;50.948;3.114;2024-02-26T04:44:22;12.48;;;11.48;;
18720;SDS011;9489;50.948;3.114;2024-02-26T04:46:47;12.70;;;11.52;;
18720;SDS011;9489;50.948;3.114;2024-02-26T04:49:13;12.88;;;11.77;;
18720;SDS011;9489;50.948;3.114;2024-02-26T04:51:39;13.30;;;12.20;;
18720;SDS011;9489;50.948;3.114;2024-02-26T04:54:04;12.35;;;11.25;;
18720;SDS011;9489;50.948;3.114;2024-02-26T04:56:30;11.75;;;10.65;;
18720;SDS011;9489;50.948;3.114;2024-02-26T04:58:55;12.25;;;11.13;;
18720;SDS011;9489;50.948;3.114;2024-02-26T05:01:21;12.05;;;11.07;;
18720;SDS011;9489;50.948;3.114;2024-02-26T05:03:47;11.45;;;10.50;;
18720;SDS011;9489;50.948;3.114;2024-02-26T05:06:13;11.02;;;10.13;;
18720;SDS011;9489;50.948;3.114;2024-02-26T05:08:38;11.18;;;10.18;;
18720;SDS011;9489;50.948;3.114;2024-02-26T05:11:04;10.85;;;9.95;;
18720;SDS011;9489;50.948;3.114;2024-02-26T05:13:30;11.88;;;10.85;;
18720;SDS011;9489;50.948;3.114;2024-02-26T05:15:56;12.10;;;11.10;;
18720;SDS011;9489;50.948;3.114;2024-02-26T05:18:22;11.73;;;10.73;;
18720;SDS011;9489;50.948;3.114;2024-02-26T05:20:48;11.25;;;10.45;;
18720;SDS011;9489;50.948;3.114;2024-02-26T05:23:14;10.68;;;9.88;;
18720;SDS011;9489;50.948;3.114;2024-02-26T05:25:39;10.20;;;9.35;;
18720;SDS011;9489;50.948;3.114;2024-02-26T05:28:06;10.65;;;9.85;;
18720;SDS011;9489;50.948;3.114;2024-02-26T05:30:31;10.23;;;9.45;;
18720;SDS011;9489;50.948;3.114;2024-02-26T05:32:57;10.23;;;9.32;;
18720;SDS011;9489;50.948;3.114;2024-02-26T05:35:23;10.32;;;9.38;;
18720;SDS011;9489;50.948;3.114;2024-02-26T05:37:48;8.90;;;8.20;;
18720;SDS011;9489;50.948;3.114;2024-02-26T05:40:14;8.93;;;8.23;;
18720;SDS011;9489;50.948;3.114;2024-02-26T05:42:40;9.82;;;8.90;;
18720;SDS011;9489;50.948;3.114;2024-02-26T05:45:05;9.10;;;8.25;;
18720;SDS011;9489;50.948;3.114;2024-02-26T05:47:35;8.43;;;7.72;;
18720;SDS011;9489;50.948;3.114;2024-02-26T05:50:01;9.27;;;8.48;;
18720;SDS011;9489;50.948;3.114;2024-02-26T05:52:27;8.98;;;8.27;;
18720;SDS011;9489;50.948;3.114;2024-02-26T05:54:54;8.07;;;7.47;;
18720;SDS011;9489;50.948;3.114;2024-02-26T05:57:20;7.88;;;7.28;;
18720;SDS011;9489;50.948;3.114;2024-02-26T05:59:46;7.88;;;7.18;;
18720;SDS011;9489;50.948;3.114;2024-02-26T06:02:11;8.23;;;7.55;;
18720;SDS011;9489;50.948;3.114;2024-02-26T06:04:37;7.72;;;7.13;;
18720;SDS011;9489;50.948;3.114;2024-02-26T06:07:02;8.35;;;7.55;;
18720;SDS011;9489;50.948;3.114;2024-02-26T06:09:28;7.60;;;6.90;;
18720;SDS011;9489;50.948;3.114;2024-02-26T06:11:54;9.05;;;8.02;;
18720;SDS011;9489;50.948;3.114;2024-02-26T06:14:20;8.65;;;7.85;;
18720;SDS011;9489;50.948;3.114;2024-02-26T06:16:45;8.50;;;7.53;;
18720;SDS011;9489;50.948;3.114;2024-02-26T06:19:11;8.95;;;8.02;;
18720;SDS011;9489;50.948;3.114;2024-02-26T06:21:37;8.52;;;7.72;;
18720;SDS011;9489;50.948;3.114;2024-02-26T06:24:03;8.80;;;8.10;;
18720;SDS011;9489;50.948;3.114;2024-02-26T06:26:28;8.93;;;8.13;;
18720;SDS011;9489;50.948;3.114;2024-02-26T06:28:54;8.60;;;7.80;;
18720;SDS011;9489;50.948;3.114;2024-02-26T06:31:23;8.60;;;7.70;;
18720;SDS011;9489;50.948;3.114;2024-02-26T06:33:49;8.50;;;7.70;;
18720;SDS011;9489;50.948;3.114;2024-02-26T06:36:15;8.30;;;7.60;;
18720;SDS011;9489;50.948;3.114;2024-02-26T06:38:41;8.80;;;8.02;;
18720;SDS011;9489;50.948;3.114;2024-02-26T06:41:07;9.20;;;8.27;;
18720;SDS011;9489;50.948;3.114;2024-02-26T06:43:32;8.48;;;7.60;;
18720;SDS011;9489;50.948;3.114;2024-02-26T06:45:58;9.18;;;8.38;;
18720;SDS011;9489;50.948;3.114;2024-02-26T06:48:24;10.20;;;9.30;;
18720;SDS011;9489;50.948;3.114;2024-02-26T06:50:50;10.43;;;9.43;;
18720;SDS011;9489;50.948;3.114;2024-02-26T06:53:15;10.45;;;9.55;;
18720;SDS011;9489;50.948;3.114;2024-02-26T06:55:41;10.65;;;9.55;;
18720;SDS011;9489;50.948;3.114;2024-02-26T06:58:08;10.73;;;9.85;;
18720;SDS011;9489;50.948;3.114;2024-02-26T07:00:34;9.85;;;8.98;;
18720;SDS011;9489;50.948;3.114;2024-02-26T07:03:00;10.15;;;9.20;;
18720;SDS011;9489;50.948;3.114;2024-02-26T07:05:26;10.45;;;9.45;;
18720;SDS011;9489;50.948;3.114;2024-02-26T07:07:52;11.05;;;10.00;;
18720;SDS011;9489;50.948;3.114;2024-02-26T07:10:18;9.88;;;8.88;;
18720;SDS011;9489;50.948;3.114;2024-02-26T07:12:44;10.32;;;9.43;;
18720;SDS011;9489;50.948;3.114;2024-02-26T07:15:09;9.98;;;9.07;;
18720;SDS011;9489;50.948;3.114;2024-02-26T07:17:35;10.43;;;9.13;;
18720;SDS011;9489;50.948;3.114;2024-02-26T07:20:01;10.07;;;9.18;;
18720;SDS011;9489;50.948;3.114;2024-02-26T07:22:30;9.80;;;9.00;;
18720;SDS011;9489;50.948;3.114;2024-02-26T07:24:56;9.70;;;8.90;;
18720;SDS011;9489;50.948;3.114;2024-02-26T07:27:22;9.85;;;8.95;;
18720;SDS011;9489;50.948;3.114;2024-02-26T07:29:48;9.15;;;8.18;;
18720;SDS011;9489;50.948;3.114;2024-02-26T07:32:14;8.13;;;7.38;;
18720;SDS011;9489;50.948;3.114;2024-02-26T07:34:40;8.32;;;7.50;;
18720;SDS011;9489;50.948;3.114;2024-02-26T07:37:10;7.88;;;7.07;;
18720;SDS011;9489;50.948;3.114;2024-02-26T07:39:36;7.80;;;7.03;;
18720;SDS011;9489;50.948;3.114;2024-02-26T07:42:02;7.90;;;6.93;;
18720;SDS011;9489;50.948;3.114;2024-02-26T07:44:28;7.97;;;7.28;;
18720;SDS011;9489;50.948;3.114;2024-02-26T07:46:54;7.25;;;6.60;;
18720;SDS011;9489;50.948;3.114;2024-02-26T07:49:19;7.22;;;6.50;;
18720;SDS011;9489;50.948;3.114;2024-02-26T07:51:45;6.90;;;6.30;;
18720;SDS011;9489;50.948;3.114;2024-02-26T07:54:10;7.03;;;6.40;;
18720;SDS011;9489;50.948;3.114;2024-02-26T07:56:36;6.03;;;5.53;;
18720;SDS011;9489;50.948;3.114;2024-02-26T07:59:02;7.05;;;5.80;;
18720;SDS011;9489;50.948;3.114;2024-02-26T08:01:27;5.80;;;5.22;;
18720;SDS011;9489;50.948;3.114;2024-02-26T08:03:53;5.90;;;5.40;;
18720;SDS011;9489;50.948;3.114;2024-02-26T08:06:19;5.57;;;5.07;;
18720;SDS011;9489;50.948;3.114;2024-02-26T08:08:45;5.80;;;5.30;;
18720;SDS011;9489;50.948;3.114;2024-02-26T08:11:10;6.32;;;4.43;;
18720;SDS011;9489;50.948;3.114;2024-02-26T08:13:36;5.38;;;4.85;;
18720;SDS011;9489;50.948;3.114;2024-02-26T08:16:01;5.97;;;4.82;;
18720;SDS011;9489;50.948;3.114;2024-02-26T08:18:27;5.45;;;4.47;;
18720;SDS011;9489;50.948;3.114;2024-02-26T08:20:53;5.07;;;4.63;;
18720;SDS011;9489;50.948;3.114;2024-02-26T08:23:18;4.43;;;4.07;;
18720;SDS011;9489;50.948;3.114;2024-02-26T08:25:44;4.80;;;4.35;;
18720;SDS011;9489;50.948;3.114;2024-02-26T08:28:10;6.10;;;5.05;;
18720;SDS011;9489;50.948;3.114;2024-02-26T08:30:39;4.78;;;4.38;;
18720;SDS011;9489;50.948;3.114;2024-02-26T08:33:04;4.75;;;4.15;;
18720;SDS011;9489;50.948;3.114;2024-02-26T08:35:30;4.60;;;4.20;;
18720;SDS011;9489;50.948;3.114;2024-02-26T08:37:56;5.40;;;4.40;;
18720;SDS011;9489;50.948;3.114;2024-02-26T08:40:21;4.65;;;4.20;;
18720;SDS011;9489;50.948;3.114;2024-02-26T08:42:47;4.47;;;4.10;;
18720;SDS011;9489;50.948;3.114;2024-02-26T08:45:13;5.10;;;3.97;;
18720;SDS011;9489;50.948;3.114;2024-02-26T08:47:39;4.80;;;4.20;;
18720;SDS011;9489;50.948;3.114;2024-02-26T08:50:05;4.72;;;4.22;;
18720;SDS011;9489;50.948;3.114;2024-02-26T08:52:31;4.88;;;4.47;;
18720;SDS011;9489;50.948;3.114;2024-02-26T08:54:58;4.75;;;4.35;;
18720;SDS011;9489;50.948;3.114;2024-02-26T08:57:23;4.90;;;4.40;;
18720;SDS011;9489;50.948;3.114;2024-02-26T08:59:52;6.75;;;4.22;;
18720;SDS011;9489;50.948;3.114;2024-02-26T09:02:17;7.72;;;4.50;;
18720;SDS011;9489;50.948;3.114;2024-02-26T09:04:44;4.43;;;4.05;;
18720;SDS011;9489;50.948;3.114;2024-02-26T09:07:10;4.30;;;3.88;;
18720;SDS011;9489;50.948;3.114;2024-02-26T09:09:36;4.88;;;4.35;;
18720;SDS011;9489;50.948;3.114;2024-02-26T09:12:01;5.10;;;4.60;;
18720;SDS011;9489;50.948;3.114;2024-02-26T09:14:27;5.68;;;5.18;;
18720;SDS011;9489;50.948;3.114;2024-02-26T09:16:53;5.38;;;4.20;;
18720;SDS011;9489;50.948;3.114;2024-02-26T09:19:19;5.72;;;5.13;;
18720;SDS011;9489;50.948;3.114;2024-02-26T09:21:44;5.57;;;4.97;;
18720;SDS011;9489;50.948;3.114;2024-02-26T09:24:11;5.82;;;4.95;;
18720;SDS011;9489;50.948;3.114;2024-02-26T09:26:37;6.10;;;5.50;;
18720;SDS011;9489;50.948;3.114;2024-02-26T09:29:03;8.65;;;5.63;;
18720;SDS011;9489;50.948;3.114;2024-02-26T09:31:29;9.23;;;5.93;;
18720;SDS011;9489;50.948;3.114;2024-02-26T09:33:55;10.43;;;6.63;;
18720;SDS011;9489;50.948;3.114;2024-02-26T09:36:21;7.13;;;6.53;;
18720;SDS011;9489;50.948;3.114;2024-02-26T09:38:47;8.15;;;6.45;;
18720;SDS011;9489;50.948;3.114;2024-02-26T09:41:15;7.50;;;6.45;;
18720;SDS011;9489;50.948;3.114;2024-02-26T09:43:42;8.13;;;7.22;;
18720;SDS011;9489;50.948;3.114;2024-02-26T09:46:10;10.07;;;7.65;;
18720;SDS011;9489;50.948;3.114;2024-02-26T09:48:35;10.98;;;8.68;;
18720;SDS011;9489;50.948;3.114;2024-02-26T09:51:02;8.45;;;7.55;;
18720;SDS011;9489;50.948;3.114;2024-02-26T09:53:29;9.70;;;8.18;;
18720;SDS011;9489;50.948;3.114;2024-02-26T09:55:58;10.13;;;8.65;;
18720;SDS011;9489;50.948;3.114;2024-02-26T09:58:24;11.77;;;8.90;;
18720;SDS011;9489;50.948;3.114;2024-02-26T10:00:55;10.20;;;9.02;;
18720;SDS011;9489;50.948;3.114;2024-02-26T10:03:25;10.98;;;9.20;;
18720;SDS011;9489;50.948;3.114;2024-02-26T10:05:55;10.60;;;9.45;;
18720;SDS011;9489;50.948;3.114;2024-02-26T10:08:22;11.15;;;8.98;;
18720;SDS011;9489;50.948;3.114;2024-02-26T10:10:48;11.15;;;10.05;;
18720;SDS011;9489;50.948;3.114;2024-02-26T10:13:15;11.05;;;9.90;;
18720;SDS011;9489;50.948;3.114;2024-02-26T10:15:41;13.23;;;9.75;;
18720;SDS011;9489;50.948;3.114;2024-02-26T10:18:06;11.80;;;9.63;;
18720;SDS011;9489;50.948;3.114;2024-02-26T10:20:32;11.20;;;9.07;;
18720;SDS011;9489;50.948;3.114;2024-02-26T10:22:58;11.07;;;9.95;;
18720;SDS011;9489;50.948;3.114;2024-02-26T10:25:27;10.63;;;9.50;;
18720;SDS011;9489;50.948;3.114;2024-02-26T10:27:53;11.68;;;10.30;;
18720;SDS011;9489;50.948;3.114;2024-02-26T10:30:22;12.15;;;10.52;;
18720;SDS011;9489;50.948;3.114;2024-02-26T10:32:51;12.45;;;11.13;;
18720;SDS011;9489;50.948;3.114;2024-02-26T10:35:17;14.15;;;10.80;;
18720;SDS011;9489;50.948;3.114;2024-02-26T10:37:45;13.20;;;11.65;;
18720;SDS011;9489;50.948;3.114;2024-02-26T10:40:12;13.75;;;11.60;;
18720;SDS011;9489;50.948;3.114;2024-02-26T10:42:39;16.25;;;12.52;;
18720;SDS011;9489;50.948;3.114;2024-02-26T10:45:06;13.77;;;12.20;;
18720;SDS011;9489;50.948;3.114;2024-02-26T10:47:34;13.40;;;12.00;;
18720;SDS011;9489;50.948;3.114;2024-02-26T10:50:04;13.02;;;11.73;;
18720;SDS011;9489;50.948;3.114;2024-02-26T10:52:31;12.07;;;10.88;;
18720;SDS011;9489;50.948;3.114;2024-02-26T10:55:01;13.27;;;11.80;;
18720;SDS011;9489;50.948;3.114;2024-02-26T10:57:31;13.65;;;12.27;;
18720;SDS011;9489;50.948;3.114;2024-02-26T11:00:10;14.52;;;11.70;;
18720;SDS011;9489;50.948;3.114;2024-02-26T11:02:39;12.95;;;11.65;;
18720;SDS011;9489;50.948;3.114;2024-02-26T11:05:06;13.55;;;12.15;;
18720;SDS011;9489;50.948;3.114;2024-02-26T11:07:32;12.73;;;10.60;;
18720;SDS011;9489;50.948;3.114;2024-02-26T11:10:02;12.43;;;10.90;;
18720;SDS011;9489;50.948;3.114;2024-02-26T11:12:32;12.27;;;10.68;;
18720;SDS011;9489;50.948;3.114;2024-02-26T11:15:02;10.73;;;9.63;;
18720;SDS011;9489;50.948;3.114;2024-02-26T11:17:29;10.95;;;9.85;;
18720;SDS011;9489;50.948;3.114;2024-02-26T11:20:00;10.80;;;9.80;;
18720;SDS011;9489;50.948;3.114;2024-02-26T11:22:29;13.35;;;10.32;;
18720;SDS011;9489;50.948;3.114;2024-02-26T11:24:55;10.60;;;9.60;;
18720;SDS011;9489;50.948;3.114;2024-02-26T11:27:44;12.65;;;10.88;;
18720;SDS011;9489;50.948;3.114;2024-02-26T11:30:13;11.55;;;10.35;;
18720;SDS011;9489;50.948;3.114;2024-02-26T11:32:44;10.57;;;8.90;;
18720;SDS011;9489;50.948;3.114;2024-02-26T11:35:11;10.95;;;9.07;;
18720;SDS011;9489;50.948;3.114;2024-02-26T11:37:40;9.80;;;8.90;;
18720;SDS011;9489;50.948;3.114;2024-02-26T11:40:15;9.45;;;8.57;;
18720;SDS011;9489;50.948;3.114;2024-02-26T11:42:43;10.40;;;9.38;;
18720;SDS011;9489;50.948;3.114;2024-02-26T11:48:13;9.23;;;8.32;;
18720;SDS011;9489;50.948;3.114;2024-02-26T11:50:47;8.30;;;7.60;;
18720;SDS011;9489;50.948;3.114;2024-02-26T11:58:58;9.10;;;7.93;;
18720;SDS011;9489;50.948;3.114;2024-02-26T12:01:36;8.40;;;7.60;;
18720;SDS011;9489;50.948;3.114;2024-02-26T12:04:05;8.35;;;7.57;;
18720;SDS011;9489;50.948;3.114;2024-02-26T12:06:55;8.60;;;7.30;;
18720;SDS011;9489;50.948;3.114;2024-02-26T12:09:41;7.28;;;6.68;;
18720;SDS011;9489;50.948;3.114;2024-02-26T12:12:07;7.07;;;6.45;;
18720;SDS011;9489;50.948;3.114;2024-02-26T12:14:40;7.25;;;6.65;;
18720;SDS011;9489;50.948;3.114;2024-02-26T12:17:23;7.90;;;6.47;;
18720;SDS011;9489;50.948;3.114;2024-02-26T12:19:49;6.68;;;6.00;;
18720;SDS011;9489;50.948;3.114;2024-02-26T12:22:18;7.65;;;6.93;;
18720;SDS011;9489;50.948;3.114;2024-02-26T12:24:44;7.38;;;6.78;;
18720;SDS011;9489;50.948;3.114;2024-02-26T12:27:10;6.22;;;5.70;;
18720;SDS011;9489;50.948;3.114;2024-02-26T12:29:35;5.95;;;5.45;;
18720;SDS011;9489;50.948;3.114;2024-02-26T12:32:01;6.03;;;5.53;;
18720;SDS011;9489;50.948;3.114;2024-02-26T12:34:29;5.85;;;5.40;;
18720;SDS011;9489;50.948;3.114;2024-02-26T12:36:54;6.40;;;5.75;;
18720;SDS011;9489;50.948;3.114;2024-02-26T12:39:20;5.18;;;4.68;;
18720;SDS011;9489;50.948;3.114;2024-02-26T12:41:46;6.95;;;5.65;;
18720;SDS011;9489;50.948;3.114;2024-02-26T12:44:18;8.23;;;5.10;;
18720;SDS011;9489;50.948;3.114;2024-02-26T12:47:02;5.68;;;5.20;;
18720;SDS011;9489;50.948;3.114;2024-02-26T12:49:29;5.07;;;4.68;;
18720;SDS011;9489;50.948;3.114;2024-02-26T12:51:55;4.95;;;4.55;;
18720;SDS011;9489;50.948;3.114;2024-02-26T12:54:27;4.68;;;4.35;;
18720;SDS011;9489;50.948;3.114;2024-02-26T12:56:54;6.13;;;4.68;;
18720;SDS011;9489;50.948;3.114;2024-02-26T12:59:20;5.10;;;4.43;;
18720;SDS011;9489;50.948;3.114;2024-02-26T13:01:46;4.63;;;4.20;;
18720;SDS011;9489;50.948;3.114;2024-02-26T13:04:12;4.68;;;4.28;;
18720;SDS011;9489;50.948;3.114;2024-02-26T13:06:37;4.30;;;3.80;;
18720;SDS011;9489;50.948;3.114;2024-02-26T13:09:03;4.45;;;3.90;;
18720;SDS011;9489;50.948;3.114;2024-02-26T13:11:29;4.75;;;4.25;;
18720;SDS011;9489;50.948;3.114;2024-02-26T13:13:56;4.00;;;3.70;;
18720;SDS011;9489;50.948;3.114;2024-02-26T13:16:24;4.20;;;3.90;;
18720;SDS011;9489;50.948;3.114;2024-02-26T13:18:50;4.40;;;4.00;;
18720;SDS011;9489;50.948;3.114;2024-02-26T13:21:17;3.78;;;3.47;;
18720;SDS011;9489;50.948;3.114;2024-02-26T13:23:46;3.80;;;3.50;;
18720;SDS011;9489;50.948;3.114;2024-02-26T13:26:14;4.85;;;4.45;;
18720;SDS011;9489;50.948;3.114;2024-02-26T13:28:40;4.05;;;3.75;;
18720;SDS011;9489;50.948;3.114;2024-02-26T13:31:06;4.47;;;4.07;;
18720;SDS011;9489;50.948;3.114;2024-02-26T13:33:32;4.32;;;3.92;;
18720;SDS011;9489;50.948;3.114;2024-02-26T13:35:59;4.00;;;3.70;;
18720;SDS011;9489;50.948;3.114;2024-02-26T13:38:26;3.70;;;3.40;;
18720;SDS011;9489;50.948;3.114;2024-02-26T13:40:53;4.60;;;3.58;;
18720;SDS011;9489;50.948;3.114;2024-02-26T13:43:19;4.10;;;3.70;;
18720;SDS011;9489;50.948;3.114;2024-02-26T13:45:45;4.13;;;3.80;;
18720;SDS011;9489;50.948;3.114;2024-02-26T13:48:11;3.90;;;3.60;;
18720;SDS011;9489;50.948;3.114;2024-02-26T13:50:38;3.90;;;3.60;;
18720;SDS011;9489;50.948;3.114;2024-02-26T13:53:04;4.25;;;3.90;;
18720;SDS011;9489;50.948;3.114;2024-02-26T13:55:30;3.67;;;3.33;;
18720;SDS011;9489;50.948;3.114;2024-02-26T13:57:57;4.00;;;3.70;;
18720;SDS011;9489;50.948;3.114;2024-02-26T14:00:24;4.03;;;3.55;;
18720;SDS011;9489;50.948;3.114;2024-02-26T14:02:50;4.28;;;3.88;;
18720;SDS011;9489;50.948;3.114;2024-02-26T14:05:16;4.80;;;4.30;;
18720;SDS011;9489;50.948;3.114;2024-02-26T14:07:42;4.47;;;4.18;;
18720;SDS011;9489;50.948;3.114;2024-02-26T14:10:08;4.45;;;3.55;;
18720;SDS011;9489;50.948;3.114;2024-02-26T14:12:36;4.32;;;3.92;;
18720;SDS011;9489;50.948;3.114;2024-02-26T14:15:02;3.90;;;3.47;;
18720;SDS011;9489;50.948;3.114;2024-02-26T14:17:30;4.43;;;4.03;;
18720;SDS011;9489;50.948;3.114;2024-02-26T14:19:56;4.40;;;4.05;;
18720;SDS011;9489;50.948;3.114;2024-02-26T14:22:21;4.70;;;4.22;;
18720;SDS011;9489;50.948;3.114;2024-02-26T14:24:47;4.35;;;4.05;;
18720;SDS011;9489;50.948;3.114;2024-02-26T14:27:13;4.18;;;3.80;;
18720;SDS011;9489;50.948;3.114;2024-02-26T14:29:45;4.55;;;4.15;;
18720;SDS011;9489;50.948;3.114;2024-02-26T14:32:10;4.38;;;4.00;;
18720;SDS011;9489;50.948;3.114;2024-02-26T14:34:36;4.43;;;4.00;;
18720;SDS011;9489;50.948;3.114;2024-02-26T14:37:02;5.10;;;4.13;;
18720;SDS011;9489;50.948;3.114;2024-02-26T14:39:28;4.82;;;4.43;;
18720;SDS011;9489;50.948;3.114;2024-02-26T14:41:54;4.93;;;4.53;;
18720;SDS011;9489;50.948;3.114;2024-02-26T14:44:20;4.90;;;4.38;;
18720;SDS011;9489;50.948;3.114;2024-02-26T14:46:45;4.82;;;4.43;;
18720;SDS011;9489;50.948;3.114;2024-02-26T14:49:11;4.75;;;4.30;;
18720;SDS011;9489;50.948;3.114;2024-02-26T14:51:37;5.18;;;4.68;;
18720;SDS011;9489;50.948;3.114;2024-02-26T14:54:03;5.03;;;4.63;;
18720;SDS011;9489;50.948;3.114;2024-02-26T14:56:29;4.90;;;4.50;;
18720;SDS011;9489;50.948;3.114;2024-02-26T14:58:55;5.57;;;5.07;;
18720;SDS011;9489;50.948;3.114;2024-02-26T15:01:21;5.63;;;5.10;;